Time;durP1;ratioP1;P1;durP2;ratioP2;P2;SDS_P1;SDS_P2;PMS_P1;PMS_P2;Temp;Humidity;BMP_temperature;BMP_pressure;BME280_temperature;BME280_humidity;BME280_pressure;Samples;Min_cycle;Max_cycle;Signal;HPM_P1;HPM_P2
2022/04/10 00:01:08;;;;;;;4.20;2.47;;;4.80;74.80;;;4.95;59.25;97730.16;4947344;29;20059;-48
2022/04/10 00:03:36;;;;;;;7.57;3.60;;;4.80;74.30;;;5.08;58.64;97725.56;4949801;29;20047;-49
2022/04/10 00:06:03;;;;;;;4.97;3.20;;;4.90;74.30;;;5.06;58.70;97731.91;4950319;29;20047;-49
2022/04/10 00:08:31;;;;;;;4.20;2.50;;;4.90;73.80;;;5.05;57.72;97725.81;4947804;29;20415;-50
2022/04/10 00:10:59;;;;;;;5.40;2.60;;;4.90;73.20;;;5.02;58.31;97733.13;4949054;29;20345;-48
2022/04/10 00:13:27;;;;;;;6.37;3.23;;;5.00;72.40;;;5.18;58.18;97728.28;4948816;29;20249;-47
2022/04/10 00:15:55;;;;;;;3.50;2.47;;;5.10;72.70;;;5.13;58.19;97733.09;4950222;29;20057;-49
2022/04/10 00:18:23;;;;;;;3.40;2.33;;;5.00;72.60;;;5.23;58.31;97741.09;4949364;29;20257;-50
2022/04/10 00:20:51;;;;;;;5.07;2.37;;;5.20;72.80;;;5.21;59.14;97730.66;4948761;29;20237;-50
2022/04/10 00:23:20;;;;;;;5.27;2.87;;;5.10;72.90;;;5.35;57.68;97740.13;4949170;29;20337;-49
2022/04/10 00:25:47;;;;;;;5.00;3.33;;;5.20;73.20;;;5.38;57.90;97733.75;4949242;28;20334;-48
2022/04/10 00:28:15;;;;;;;4.20;2.43;;;5.30;73.00;;;5.44;58.14;97735.88;4947925;29;20055;-51
2022/04/10 00:30:43;;;;;;;5.50;3.10;;;5.30;72.90;;;5.42;58.23;97730.72;4949137;29;20050;-49
2022/04/10 00:33:11;;;;;;;4.73;2.77;;;5.30;73.50;;;5.48;58.26;97727.56;4931574;29;20067;-49
2022/04/10 00:35:39;;;;;;;4.87;3.53;;;5.30;73.50;;;5.54;58.24;97731.50;4949099;29;20043;-48
2022/04/10 00:38:07;;;;;;;4.87;2.90;;;5.40;73.00;;;5.59;57.96;97728.50;4948278;29;20061;-48
2022/04/10 00:40:35;;;;;;;4.57;2.53;;;5.40;72.80;;;5.58;57.42;97724.97;4948738;29;20399;-47
2022/04/10 00:43:03;;;;;;;5.33;2.70;;;5.40;72.20;;;5.61;58.11;97737.13;4948813;29;20047;-47
2022/04/10 00:45:31;;;;;;;4.17;2.67;;;5.40;72.60;;;5.59;57.88;97728.50;4948150;29;20055;-48
2022/04/10 00:47:59;;;;;;;2.83;2.03;;;5.30;72.80;;;5.62;57.99;97737.00;4947007;29;20055;-48
2022/04/10 00:50:27;;;;;;;5.13;2.73;;;5.40;72.20;;;5.66;57.68;97733.13;4948880;29;20063;-47
2022/04/10 00:52:57;;;;;;;4.47;2.50;;;5.40;72.20;;;5.66;57.78;97732.28;4946994;29;20077;-49
2022/04/10 00:55:26;;;;;;;2.63;2.20;;;5.40;71.80;;;5.66;57.57;97734.91;4946355;29;20050;-49
2022/04/10 00:57:54;;;;;;;3.77;2.50;;;5.40;71.60;;;5.67;57.44;97729.50;4931070;29;20069;-48
2022/04/10 01:00:22;;;;;;;4.40;2.60;;;5.40;71.50;;;5.65;56.99;97741.19;4946384;29;20070;-50
2022/04/10 01:02:50;;;;;;;5.33;2.23;;;5.40;71.20;;;5.68;57.76;97739.13;4948023;29;20204;-50
2022/04/10 01:05:18;;;;;;;2.97;2.00;;;5.40;71.50;;;5.64;57.24;97743.00;4946257;29;20276;-49
2022/04/10 01:07:46;;;;;;;3.67;2.50;;;5.40;71.20;;;5.64;57.20;97736.84;4949313;29;20047;-47
2022/04/10 01:10:14;;;;;;;3.67;2.50;;;5.40;71.30;;;5.61;56.77;97748.50;4945869;29;20264;-48
2022/04/10 01:12:42;;;;;;;5.03;2.30;;;5.30;71.60;;;5.45;57.57;97750.75;4929340;29;20059;-49
2022/04/10 01:15:16;;;;;;;4.00;2.80;;;5.10;72.10;;;5.46;57.13;97750.59;4916229;29;20059;-47
2022/04/10 01:17:47;;;;;;;6.23;2.70;;;5.10;72.60;;;5.52;57.41;97762.47;4946235;29;20047;-48
2022/04/10 01:20:16;;;;;;;4.47;2.80;;;5.20;72.40;;;5.41;57.38;97758.09;4946441;29;20073;-49
2022/04/10 01:22:49;;;;;;;7.07;2.70;;;5.10;73.10;;;5.35;58.17;97761.25;4946542;29;20051;-49
2022/04/10 01:25:17;;;;;;;6.13;2.97;;;5.00;73.40;;;5.18;58.92;97759.97;4931173;29;20365;-47
2022/04/10 01:27:45;;;;;;;5.30;2.70;;;4.80;74.10;;;5.18;58.04;97761.78;4946897;29;20066;-49
2022/04/10 01:30:15;;;;;;;5.43;2.60;;;4.80;74.80;;;5.04;59.22;97760.22;4946357;29;20059;-49
2022/04/10 01:32:45;;;;;;;5.10;2.83;;;4.60;75.60;;;5.05;58.25;97764.56;4946350;29;20109;-47
2022/04/10 01:35:13;;;;;;;8.67;3.33;;;4.70;75.30;;;4.90;58.73;97761.34;4944596;29;20604;-48
2022/04/10 01:37:43;;;;;;;4.23;2.80;;;4.60;76.10;;;4.76;59.32;97767.72;4949456;28;20059;-49
2022/04/10 01:40:16;;;;;;;5.83;2.50;;;4.40;76.50;;;4.44;60.73;97765.84;4950584;29;20059;-47
2022/04/10 01:42:44;;;;;;;4.47;2.97;;;4.20;78.30;;;4.63;59.98;97762.56;4950342;29;20379;-48
2022/04/10 01:45:13;;;;;;;3.33;2.73;;;4.20;78.90;;;4.63;60.54;97761.72;4950281;29;20131;-45
2022/04/10 01:47:41;;;;;;;6.13;2.97;;;4.20;78.40;;;4.27;61.80;97763.66;4952642;29;20077;-46
2022/04/10 01:50:11;;;;;;;3.30;2.73;;;4.10;79.50;;;4.36;60.95;97767.38;4950483;29;20059;-48
2022/04/10 01:52:39;;;;;;;5.53;2.57;;;4.10;81.00;;;4.38;61.03;97757.53;4949930;29;20066;-46
2022/04/10 01:55:08;;;;;;;8.27;2.80;;;4.10;80.60;;;4.40;60.44;97760.91;4950767;29;20109;-46
2022/04/10 01:57:37;;;;;;;3.47;2.60;;;4.10;80.80;;;4.36;61.27;97762.94;4950666;29;20066;-46
2022/04/10 02:00:06;;;;;;;7.30;3.30;;;4.10;80.20;;;4.33;61.46;97760.56;4934077;29;20226;-47
2022/04/10 02:02:39;;;;;;;;;;;4.00;80.60;;;3.88;63.13;97766.59;4955570;28;20058;-45
2022/04/10 02:05:07;;;;;;;3.30;2.70;;;3.80;82.10;;;4.06;62.07;97766.16;4949428;29;19948;-48
2022/04/10 02:07:35;;;;;;;5.73;3.03;;;3.80;82.80;;;4.04;62.21;97762.78;4950933;29;20087;-49
2022/04/10 02:10:04;;;;;;;6.57;3.10;;;3.80;82.80;;;4.09;62.21;97758.84;4949558;29;20047;-49
2022/04/10 02:12:33;;;;;;;5.37;3.17;;;3.80;82.70;;;3.97;62.19;97762.41;4949667;29;20069;-47
2022/04/10 02:15:01;;;;;;;8.13;4.30;;;3.80;82.90;;;4.03;62.32;97761.97;4949660;29;20055;-47
2022/04/10 02:17:29;;;;;;;4.57;3.00;;;3.70;83.20;;;3.93;62.36;97763.59;4949836;29;20391;-49
2022/04/10 02:19:57;;;;;;;3.97;2.93;;;3.70;83.90;;;3.96;61.85;97760.75;4949147;29;20043;-50
2022/04/10 02:22:24;;;;;;;6.50;3.00;;;3.60;84.00;;;3.83;62.52;97760.81;4950118;29;20063;-47
2022/04/10 02:24:55;;;;;;;4.77;2.90;;;3.60;84.80;;;3.84;62.91;97756.38;4949410;29;20354;-51
2022/04/10 02:27:25;;;;;;;4.20;2.63;;;3.60;84.70;;;3.55;63.76;97762.91;4950265;29;20047;-48
2022/04/10 02:29:53;;;;;;;5.37;3.07;;;3.40;85.10;;;3.67;63.01;97758.53;4951566;29;20061;-46
2022/04/10 02:32:21;;;;;;;6.40;3.23;;;3.50;85.80;;;3.67;63.35;97758.53;4949151;29;20168;-47
2022/04/10 02:34:49;;;;;;;6.43;3.40;;;3.50;85.80;;;3.62;63.65;97765.91;4949627;29;20069;-48
2022/04/10 02:37:19;;;;;;;4.87;2.80;;;3.40;85.90;;;3.67;63.73;97768.22;4933857;29;20067;-49
2022/04/10 02:39:47;;;;;;;4.00;3.00;;;3.40;86.20;;;3.58;64.05;97768.91;4948704;29;20059;-47
2022/04/10 02:42:14;;;;;;;4.77;2.80;;;3.40;86.90;;;3.64;63.58;97769.25;4948798;29;20059;-47
2022/04/10 02:44:42;;;;;;;5.97;3.70;;;3.40;86.80;;;3.68;63.10;97772.50;4948679;29;20341;-46
2022/04/10 02:47:10;;;;;;;5.90;3.33;;;3.40;87.10;;;3.68;62.90;97768.13;4949426;28;20073;-48
2022/04/10 02:49:38;;;;;;;5.23;2.50;;;3.40;87.80;;;3.41;64.44;97772.78;4948156;29;20074;-46
2022/04/10 02:52:06;;;;;;;5.13;3.80;;;3.20;88.30;;;3.53;63.76;97777.97;4948709;29;20066;-48
2022/04/10 02:54:34;;;;;;;5.73;3.33;;;3.20;89.00;;;3.49;64.08;97775.66;4948472;29;20062;-45
2022/04/10 02:57:03;;;;;;;7.07;3.60;;;3.20;89.10;;;3.35;64.57;97781.97;4948150;29;20054;-46
2022/04/10 02:59:31;;;;;;;6.97;3.67;;;3.20;88.80;;;3.46;64.10;97771.47;4949142;29;20047;-46
2022/04/10 03:01:59;;;;;;;5.53;3.03;;;3.20;89.30;;;3.47;64.06;97774.94;4950054;29;20372;-47
2022/04/10 03:04:27;;;;;;;4.60;3.27;;;3.20;89.00;;;3.47;63.47;97773.19;4933447;29;20230;-46
2022/04/10 03:06:55;;;;;;;4.50;3.47;;;3.20;89.10;;;3.55;63.23;97781.34;4948724;29;20070;-48
2022/04/10 03:09:23;;;;;;;5.03;3.80;;;3.30;87.80;;;3.61;63.28;97780.03;4948246;29;20059;-47
2022/04/10 03:11:53;;;;;;;6.10;3.47;;;3.40;85.90;;;3.65;62.91;97776.22;4947458;29;20260;-46
2022/04/10 03:14:21;;;;;;;6.73;3.23;;;3.50;85.10;;;3.72;62.77;97782.72;4949172;29;20051;-49
2022/04/10 03:16:49;;;;;;;5.43;3.43;;;3.50;84.80;;;3.85;62.26;97777.34;4949608;29;20259;-47
2022/04/10 03:19:18;;;;;;;5.57;3.73;;;3.60;84.70;;;3.97;62.47;97775.59;4948475;29;20070;-47
2022/04/10 03:21:45;;;;;;;5.53;4.07;;;3.70;84.10;;;4.07;61.88;97781.84;4948723;29;20059;-48
2022/04/10 03:24:13;;;;;;;5.97;4.53;;;3.80;82.70;;;4.09;62.11;97779.94;4948029;29;20398;-46
2022/04/10 03:26:41;;;;;;;7.90;3.30;;;3.90;81.90;;;4.14;61.42;97788.31;4949280;29;20077;-46
2022/04/10 03:29:11;;;;;;;6.50;3.43;;;3.90;81.50;;;4.21;61.55;97791.34;4933146;29;20051;-46
2022/04/10 03:31:40;;;;;;;4.67;3.20;;;3.90;81.50;;;4.16;61.53;97790.00;4947534;29;20134;-46
2022/04/10 03:34:09;;;;;;;7.07;4.30;;;3.90;81.40;;;4.24;60.99;97788.44;4948697;29;20047;-48
2022/04/10 03:36:37;;;;;;;7.20;3.50;;;3.90;81.10;;;4.29;60.76;97796.00;4948139;29;20297;-51
2022/04/10 03:39:05;;;;;;;5.17;3.47;;;4.00;80.40;;;4.32;61.19;97798.41;4947916;29;20055;-49
2022/04/10 03:41:33;;;;;;;5.07;3.57;;;4.00;80.10;;;4.28;60.69;97803.06;4933540;29;20391;-47
2022/04/10 03:44:01;;;;;;;7.10;3.73;;;3.90;80.10;;;4.29;60.71;97809.19;4948121;29;20055;-47
2022/04/10 03:46:29;;;;;;;7.00;4.40;;;3.90;79.60;;;4.31;60.74;97813.38;4949781;29;20341;-47
2022/04/10 03:48:58;;;;;;;7.20;3.57;;;3.90;79.90;;;4.28;60.82;97810.97;4947653;29;20081;-48
2022/04/10 03:51:26;;;;;;;5.17;3.63;;;3.90;80.20;;;4.30;60.51;97817.00;4949134;29;20398;-48
2022/04/10 03:53:54;;;;;;;5.53;3.83;;;3.90;80.00;;;4.29;60.81;97817.94;4963761;28;20066;-52
2022/04/10 03:56:22;;;;;;;6.80;4.23;;;3.90;79.70;;;4.29;60.67;97828.47;4948485;29;20214;-48
2022/04/10 03:58:50;;;;;;;5.33;3.90;;;3.90;79.50;;;4.32;61.00;97822.97;4947998;28;20071;-46
2022/04/10 04:01:18;;;;;;;5.77;3.50;;;3.90;79.90;;;4.35;60.39;97824.53;4947020;29;20055;-47
2022/04/10 04:03:45;;;;;;;7.27;4.17;;;4.00;79.70;;;4.32;61.04;97827.38;4949557;29;20043;-50
2022/04/10 04:06:13;;;;;;;9.80;4.83;;;4.00;79.50;;;4.27;60.91;97822.47;4947718;29;20460;-47
2022/04/10 04:08:41;;;;;;;5.93;3.83;;;3.80;79.80;;;4.32;61.18;97836.16;4947724;29;20070;-46
2022/04/10 04:11:10;;;;;;;6.03;4.27;;;3.90;80.20;;;4.33;60.36;97842.25;4946895;29;20067;-47
2022/04/10 04:13:40;;;;;;;5.77;3.57;;;3.90;80.10;;;4.31;61.22;97837.09;4947418;29;20369;-48
2022/04/10 04:16:10;;;;;;;6.17;3.93;;;3.90;79.70;;;4.33;60.63;97845.72;4947634;29;20270;-48
2022/04/10 04:18:38;;;;;;;6.07;3.50;;;4.00;79.70;;;4.40;60.54;97840.84;4947270;29;20059;-48
2022/04/10 04:21:09;;;;;;;5.47;3.67;;;4.00;79.60;;;4.46;60.74;97845.63;4930670;29;20059;-46
2022/04/10 04:23:42;;;;;;;6.43;4.00;;;4.10;79.20;;;4.48;60.54;97846.38;4946778;29;20051;-46
2022/04/10 04:26:10;;;;;;;4.73;3.90;;;4.20;78.80;;;4.50;60.58;97848.88;4948531;29;20055;-47
2022/04/10 04:28:40;;;;;;;6.20;3.90;;;4.20;78.60;;;4.50;61.19;97856.78;4947652;29;20051;-51
2022/04/10 04:31:08;;;;;;;6.80;3.67;;;4.20;78.30;;;4.50;60.64;97859.44;4946242;29;20055;-46
2022/04/10 04:33:36;;;;;;;5.07;3.70;;;4.10;78.90;;;4.52;60.44;97858.34;4949585;29;20051;-48
2022/04/10 04:36:05;;;;;;;5.83;3.47;;;4.20;78.90;;;4.52;60.63;97854.88;4944048;29;20063;-50
2022/04/10 04:38:33;;;;;;;3.97;3.23;;;4.20;78.80;;;4.55;61.24;97859.91;4930646;29;20055;-48
2022/04/10 04:41:01;;;;;;;8.43;4.17;;;4.20;79.00;;;4.57;61.13;97862.41;4931386;29;20081;-48
2022/04/10 04:43:29;;;;;;;5.90;4.40;;;4.20;78.80;;;4.57;60.72;97863.25;4947224;29;20051;-50
2022/04/10 04:45:57;;;;;;;4.27;3.43;;;4.20;79.00;;;4.50;60.40;97873.44;4948053;29;20058;-50
2022/04/10 04:48:25;;;;;;;9.67;4.43;;;4.10;79.00;;;4.43;60.89;97869.59;4947031;29;20062;-47
2022/04/10 04:50:53;;;;;;;6.63;4.40;;;4.00;78.50;;;4.45;60.86;97866.84;4946841;29;20059;-49
2022/04/10 04:53:25;;;;;;;7.60;4.83;;;4.00;78.80;;;4.41;60.99;97876.78;4946809;29;20069;-48
2022/04/10 04:55:54;;;;;;;7.10;4.50;;;4.00;79.50;;;4.41;60.71;97879.41;4946863;29;20067;-48
2022/04/10 04:58:25;;;;;;;9.77;4.10;;;4.00;79.40;;;4.12;61.53;97886.88;4947177;29;20055;-49
2022/04/10 05:00:55;;;;;;;5.27;4.07;;;3.80;79.20;;;4.19;61.59;97882.84;4947118;29;20055;-47
2022/04/10 05:03:25;;;;;;;8.50;4.80;;;3.80;80.30;;;4.29;61.27;97889.09;4946044;29;20086;-47
2022/04/10 05:05:54;;;;;;;7.23;5.77;;;3.90;80.70;;;4.38;60.85;97889.34;4946236;29;20055;-49
2022/04/10 05:08:27;;;;;;;11.10;7.97;;;4.00;80.30;;;4.46;61.44;97881.69;4946503;29;20349;-48
2022/04/10 05:10:56;;;;;;;7.60;5.70;;;4.10;79.80;;;4.50;60.60;97891.91;4945192;28;20063;-47
2022/04/10 05:13:24;;;;;;;9.17;5.83;;;4.20;78.70;;;4.54;60.57;97888.06;4945710;29;20377;-50
2022/04/10 05:15:53;;;;;;;8.87;5.17;;;4.20;79.50;;;4.52;61.33;97902.34;4949825;29;20051;-48
2022/04/10 05:18:26;;;;;;;7.15;4.72;;;4.20;79.10;;;4.51;60.08;97896.19;4946119;29;20353;-49
2022/04/10 05:20:54;;;;;;;4.83;4.03;;;4.10;78.80;;;4.53;61.08;97920.66;4946305;29;20380;-47
2022/04/10 05:23:25;;;;;;;6.90;4.20;;;4.20;79.30;;;4.57;60.63;97916.00;4946041;29;20082;-47
2022/04/10 05:26:00;;;;;;;6.10;3.70;;;4.20;79.30;;;4.57;61.29;97916.00;4947489;29;20065;-48
2022/04/10 05:28:32;;;;;;;5.23;3.87;;;4.30;78.90;;;4.62;60.69;97919.13;4945834;29;20053;-48
2022/04/10 05:31:02;;;;;;;5.63;4.67;;;4.20;78.70;;;4.52;61.18;97932.19;4930598;29;20055;-51
2022/04/10 05:33:35;;;;;;;5.33;3.97;;;4.10;79.00;;;4.41;61.01;97928.66;4945970;29;20059;-47
2022/04/10 05:36:04;;;;;;;7.43;4.67;;;4.00;79.90;;;4.39;60.94;97923.50;4946304;29;20063;-52
2022/04/10 05:38:34;;;;;;;6.73;4.80;;;4.00;80.20;;;4.39;61.47;97923.50;4931312;29;20346;-47
2022/04/10 05:41:03;;;;;;;5.87;4.20;;;4.00;79.70;;;4.31;61.89;97936.44;4947776;29;20061;-50
2022/04/10 05:43:35;;;;;;;7.17;4.83;;;4.00;80.70;;;4.33;62.28;97935.34;4947052;29;20346;-50
2022/04/10 05:46:03;;;;;;;5.20;4.10;;;4.00;80.30;;;4.41;61.56;97936.59;4947496;29;20237;-50
2022/04/10 05:48:33;;;;;;;6.33;3.87;;;4.20;80.40;;;4.50;61.83;97942.00;4946875;29;20069;-51
2022/04/10 05:51:02;;;;;;;6.27;4.60;;;4.30;79.50;;;4.57;61.65;97938.88;4945568;29;20081;-49
2022/04/10 05:53:33;;;;;;;6.50;4.03;;;4.30;79.50;;;4.67;61.72;97943.38;4946989;29;20765;-49
2022/04/10 05:56:03;;;;;;;4.73;3.37;;;4.50;79.30;;;4.79;60.87;97948.63;4946896;29;20249;-48
2022/04/10 05:58:39;;;;;;;7.97;4.20;;;4.60;78.20;;;4.85;61.07;97938.47;4945118;29;20047;-47
2022/04/10 06:01:07;;;;;;;7.17;3.43;;;4.70;78.30;;;4.78;61.36;97944.34;4948047;29;20057;-49
2022/04/10 06:03:35;;;;;;;8.80;4.10;;;4.70;77.80;;;4.81;60.92;97949.34;4946550;29;20061;-52
2022/04/10 06:06:06;;;;;;;6.50;3.67;;;4.60;77.80;;;4.92;61.00;97955.53;4946679;29;20490;-48
2022/04/10 06:08:42;;;;;;;6.40;4.10;;;4.80;77.70;;;4.97;60.82;97956.97;4945859;29;20051;-50
2022/04/10 06:11:10;;;;;;;10.30;5.57;;;4.80;77.30;;;4.96;61.28;97960.53;4944870;29;20131;-48
2022/04/10 06:13:39;;;;;;;4.97;4.20;;;4.80;77.10;;;4.91;60.64;97968.81;4945693;29;20063;-50
2022/04/10 06:16:12;;;;;;;7.23;5.07;;;4.70;77.50;;;4.83;60.90;97969.41;4946376;29;20360;-48
2022/04/10 06:18:43;;;;;;;5.63;4.60;;;4.70;76.80;;;4.90;61.25;97959.22;4946308;29;20399;-50
2022/04/10 06:21:12;;;;;;;5.40;4.30;;;4.70;77.80;;;4.95;60.45;97975.53;4945455;29;20058;-49
2022/04/10 06:23:42;;;;;;;7.90;5.03;;;4.80;77.20;;;5.03;60.94;97970.50;4947601;28;20057;-52
2022/04/10 06:26:16;;;;;;;7.10;4.70;;;4.90;77.00;;;5.11;60.95;97973.38;4949329;29;20368;-50
2022/04/10 06:28:45;;;;;;;4.90;4.20;;;5.00;77.00;;;5.07;60.67;97977.22;4945975;29;20048;-48
2022/04/10 06:31:20;;;;;;;9.23;4.43;;;4.90;77.10;;;5.20;61.28;97978.94;4949416;29;20057;-51
2022/04/10 06:33:50;;;;;;;5.30;3.70;;;5.00;76.50;;;5.25;61.06;97979.41;4948069;29;20051;-48
2022/04/10 06:36:18;;;;;;;5.57;4.00;;;5.10;76.70;;;5.35;60.63;97977.75;4948480;29;20070;-48
2022/04/10 06:38:49;;;;;;;6.07;3.67;;;5.30;76.20;;;5.31;60.80;97984.19;4949283;29;20059;-50
2022/04/10 06:41:21;;;;;;;8.90;4.67;;;5.30;74.40;;;5.33;59.97;97982.28;4947347;29;20066;-49
2022/04/10 06:43:50;;;;;;;6.40;4.40;;;5.20;75.20;;;5.27;60.02;97978.34;4932199;29;20063;-49
2022/04/10 06:46:38;;;;;;;10.27;5.33;;;5.20;73.60;;;5.33;59.57;97987.56;4949547;29;20051;-48
2022/04/10 06:49:14;;;;;;;6.97;4.30;;;5.20;74.90;;;5.42;60.48;97978.09;4948529;29;20067;-52
2022/04/10 06:51:45;;;;;;;5.90;4.20;;;5.30;75.20;;;5.40;59.69;97980.00;4948812;29;20059;-48
2022/04/10 06:54:18;;;;;;;7.78;4.90;;;5.30;74.70;;;5.54;60.19;97987.66;4947953;29;20054;-53
2022/04/10 06:56:46;;;;;;;7.03;4.10;;;5.40;75.20;;;5.58;60.56;97985.63;4948235;29;20066;-48
2022/04/10 06:59:14;;;;;;;5.83;4.13;;;5.50;74.10;;;5.54;59.77;97992.94;4931639;29;20062;-49
2022/04/10 07:01:43;;;;;;;7.57;5.47;;;5.50;73.50;;;5.33;60.30;97990.19;4948219;29;20246;-48
2022/04/10 07:04:12;;;;;;;9.07;4.30;;;5.30;73.90;;;5.36;59.79;97991.78;4948720;29;20050;-50
2022/04/10 07:06:40;;;;;;;5.80;4.37;;;5.30;74.20;;;5.38;60.06;97989.84;4948620;29;20061;-49
2022/04/10 07:09:08;;;;;;;5.10;3.70;;;5.30;74.40;;;5.06;60.93;97991.41;4947807;29;20063;-48
2022/04/10 07:11:37;;;;;;;7.60;4.77;;;5.10;74.70;;;5.13;60.79;97987.31;4947418;29;20222;-50
2022/04/10 07:14:13;;;;;;;7.37;4.80;;;5.20;74.90;;;5.02;61.26;97992.59;4947728;29;20059;-49
2022/04/10 07:16:41;;;;;;;9.67;5.60;;;5.10;75.20;;;5.17;60.78;97995.81;4949669;29;20057;-49
2022/04/10 07:19:09;;;;;;;7.37;4.63;;;5.20;75.10;;;5.35;60.15;97990.06;4947169;29;20245;-50
2022/04/10 07:24:26;;;;;;;8.13;4.50;;;5.40;74.70;;;5.43;60.73;97993.81;4949417;29;20043;-50
2022/04/10 07:26:57;;;;;;;10.63;5.87;;;5.40;75.10;;;5.46;60.10;98000.66;4947857;29;20061;-49
2022/04/10 07:29:33;;;;;;;10.33;4.93;;;5.50;74.60;;;5.44;59.98;98005.22;4948011;29;20051;-48
2022/04/10 07:32:03;;;;;;;6.67;4.47;;;5.50;74.00;;;5.39;59.27;98002.94;4947016;29;20364;-51
2022/04/10 07:34:36;;;;;;;5.80;4.47;;;5.50;72.50;;;5.42;59.74;97999.22;4946978;28;20059;-49
2022/04/10 07:37:13;;;;;;;5.53;4.00;;;5.40;73.30;;;5.44;59.50;98002.56;4948855;29;20234;-51
2022/04/10 07:39:50;;;;;;;6.17;4.50;;;5.50;73.00;;;5.50;59.76;98000.28;4964102;28;20065;-48
2022/04/10 07:42:24;;;;;;;4.97;4.47;;;5.50;73.30;;;5.53;59.35;98002.69;4946869;29;20065;-52
2022/04/10 07:48:27;;;;;;;5.90;4.20;;;5.80;70.60;;;5.69;58.73;98007.59;4941719;29;20059;-50
2022/04/10 07:50:57;;;;;;;7.47;4.67;;;5.80;69.70;;;5.81;58.76;98013.69;4947950;29;20047;-51
2022/04/10 07:53:38;;;;;;;5.97;4.30;;;5.80;70.30;;;5.77;57.88;98011.44;4947800;29;20094;-51
2022/04/10 07:56:06;;;;;;;6.23;4.23;;;5.80;70.10;;;5.83;58.38;98013.59;4948247;29;20124;-51
2022/04/10 07:58:34;;;;;;;5.27;4.03;;;5.90;69.90;;;5.87;58.53;98021.16;4947862;29;20055;-50
2022/04/10 08:01:18;;;;;;;5.03;4.33;;;5.90;70.40;;;5.71;57.66;98018.03;4946595;29;20077;-48
2022/04/10 08:03:51;;;;;;;7.77;4.73;;;5.80;68.40;;;5.86;57.45;98024.75;4947649;29;20240;-53
2022/04/10 08:06:37;;;;;;;7.23;4.80;;;5.90;67.70;;;5.87;57.63;98023.81;4954396;28;20485;-48
2022/04/10 08:09:05;;;;;;;7.10;4.53;;;5.90;69.90;;;6.05;57.76;98031.25;4949225;29;20047;-52
2022/04/10 08:11:33;;;;;;;7.03;4.17;;;6.10;69.30;;;5.92;57.13;98039.28;4948553;29;20212;-48
2022/04/10 08:14:01;;;;;;;7.23;4.23;;;6.00;68.00;;;6.02;57.74;98040.25;4949198;29;20365;-51
2022/04/10 08:16:29;;;;;;;5.67;4.10;;;6.10;68.40;;;6.16;57.11;98046.22;4950324;29;20058;-50
2022/04/10 08:18:57;;;;;;;9.13;4.70;;;6.20;66.80;;;6.28;57.35;98043.44;4949252;29;20236;-51
2022/04/10 08:21:24;;;;;;;6.53;4.00;;;6.40;68.10;;;6.43;56.96;98043.16;4948750;29;20051;-52
2022/04/10 08:23:53;;;;;;;10.33;6.07;;;6.50;67.70;;;6.39;55.55;98060.25;4949727;29;20051;-53
2022/04/10 08:26:21;;;;;;;9.80;4.30;;;6.50;65.30;;;6.09;54.94;98049.38;4949324;29;20047;-49
2022/04/10 08:28:48;;;;;;;6.93;4.57;;;6.20;63.90;;;6.06;55.06;98046.97;4949275;29;20367;-51
2022/04/10 08:31:16;;;;;;;6.53;4.73;;;6.20;64.60;;;6.19;56.00;98053.94;4948475;29;20365;-52
2022/04/10 08:33:44;;;;;;;7.23;4.40;;;6.20;65.90;;;6.05;54.98;98049.75;4949195;29;20349;-49
2022/04/10 08:36:12;;;;;;;5.67;3.90;;;6.20;63.40;;;6.14;55.54;98053.44;4943202;28;20052;-49
2022/04/10 08:38:40;;;;;;;6.23;5.07;;;6.20;65.80;;;6.33;56.59;98056.28;4965618;28;20051;-48
2022/04/10 08:41:09;;;;;;;5.53;4.33;;;6.40;66.70;;;6.35;55.72;98057.00;4964829;28;20047;-52
2022/04/10 08:43:38;;;;;;;5.90;3.90;;;6.50;64.20;;;6.29;54.71;98057.50;4947547;28;20043;-51
2022/04/10 08:46:06;;;;;;;8.63;4.17;;;6.50;62.20;;;6.30;54.63;98061.81;4961227;28;20054;-49
2022/04/10 08:48:36;;;;;;;6.83;4.70;;;6.50;62.60;;;6.38;53.68;98063.84;4947042;29;20051;-49
2022/04/10 08:51:09;;;;;;;7.13;4.53;;;6.50;61.80;;;6.45;54.30;98065.84;4962902;29;20051;-50
2022/04/10 08:53:39;;;;;;;6.53;4.43;;;6.60;63.40;;;6.15;53.06;98069.19;4963924;29;20047;-50
2022/04/10 08:56:08;;;;;;;6.57;4.83;;;6.40;61.10;;;6.33;54.32;98066.88;4962652;29;20061;-51
2022/04/10 08:58:36;;;;;;;8.00;4.80;;;6.50;63.00;;;6.30;54.15;98072.38;4963985;29;20043;-49
2022/04/10 09:01:04;;;;;;;5.33;4.00;;;6.40;63.10;;;6.48;54.46;98067.44;4964320;28;20066;-52
2022/04/10 09:03:32;;;;;;;7.67;4.23;;;6.50;64.20;;;6.54;53.82;98068.75;4963993;28;20051;-49
2022/04/10 09:06:10;;;;;;;9.40;6.27;;;6.60;62.60;;;6.45;53.47;98067.66;4963604;28;20182;-49
2022/04/10 09:08:38;;;;;;;6.83;4.50;;;6.60;60.80;;;6.48;53.82;98064.78;4962852;29;20152;-48
2022/04/10 09:11:08;;;;;;;6.03;4.50;;;6.60;61.40;;;6.35;54.34;98072.03;4963852;29;20058;-50
2022/04/10 09:13:49;;;;;;;5.93;4.40;;;6.50;62.60;;;6.57;53.85;98065.81;4963624;29;20353;-49
2022/04/10 09:16:23;;;;;;;5.80;3.63;;;6.60;62.60;;;6.64;54.14;98067.00;4962229;29;20047;-49
2022/04/10 09:18:58;;;;;;;5.50;4.03;;;6.70;61.80;;;6.66;52.60;98065.91;4962346;29;20055;-49
2022/04/10 09:21:29;;;;;;;6.73;3.57;;;6.80;60.10;;;6.69;53.18;98063.03;4963958;29;20061;-47
2022/04/10 09:24:09;;;;;;;6.27;4.23;;;6.90;60.10;;;6.79;51.51;98052.53;4963601;29;20047;-50
2022/04/10 09:26:48;;;;;;;5.47;3.90;;;7.10;58.20;;;6.95;52.53;98065.31;4963477;29;20053;-47
2022/04/10 09:29:19;;;;;;;7.20;3.70;;;7.20;59.40;;;7.08;52.17;98067.78;4963608;29;20051;-48
2022/04/10 09:31:48;;;;;;;6.70;3.90;;;7.30;58.80;;;7.07;50.85;98066.91;4963721;29;20047;-51
2022/04/10 09:34:22;;;;;;;7.07;3.83;;;7.30;57.50;;;7.03;50.84;98049.63;4963826;28;20051;-49
2022/04/10 09:37:14;;;;;;;4.63;3.63;;;7.30;57.20;;;7.21;51.89;98056.97;4962365;29;20059;-48
2022/04/10 09:39:44;;;;;;;6.30;4.27;;;7.40;57.50;;;7.07;50.75;98068.72;4962472;29;20051;-47
2022/04/10 09:42:14;;;;;;;5.73;3.83;;;7.40;56.70;;;7.20;50.54;98064.09;4963347;29;20057;-48
2022/04/10 09:45:01;;;;;;;5.00;3.13;;;7.40;55.60;;;7.32;49.98;98050.78;4963758;29;20051;-48
2022/04/10 09:47:29;;;;;;;5.27;3.30;;;7.50;55.30;;;7.24;50.01;98062.84;4961119;29;20047;-50
2022/04/10 09:50:05;;;;;;;9.97;4.50;;;7.50;55.80;;;7.37;50.07;98056.53;4963549;29;20047;-51
2022/04/10 09:52:37;;;;;;;5.47;4.07;;;7.60;56.40;;;7.44;50.65;98057.66;4962323;29;20366;-51
2022/04/10 09:55:08;;;;;;;4.83;3.70;;;7.70;57.70;;;7.39;50.64;98055.44;4963594;29;20210;-48
2022/04/10 09:57:48;;;;;;;7.57;4.87;;;7.60;56.80;;;7.20;49.56;98068.56;4963946;28;20252;-50
2022/04/10 10:00:17;;;;;;;4.03;3.37;;;7.40;55.20;;;6.92;49.93;98076.16;4967331;29;20057;-51
2022/04/10 10:02:45;;;;;;;5.03;3.17;;;7.10;56.20;;;6.95;51.75;98080.34;4967093;29;20043;-49
2022/04/10 10:05:13;;;;;;;6.53;4.10;;;7.00;59.00;;;6.97;51.47;98081.91;4967453;29;20039;-52
2022/04/10 10:07:43;;;;;;;5.33;3.40;;;7.00;60.30;;;7.02;53.12;98084.19;4965401;29;20094;-49
2022/04/10 10:10:11;;;;;;;6.30;3.80;;;7.10;62.10;;;7.09;52.68;98085.31;4966040;29;20043;-49
2022/04/10 10:12:39;;;;;;;6.00;3.93;;;7.10;62.00;;;7.24;53.93;98081.41;4967195;29;20253;-47
2022/04/10 10:15:09;;;;;;;5.87;4.23;;;7.30;63.00;;;7.19;53.93;98080.09;4966888;29;20057;-52
2022/04/10 10:17:38;;;;;;;5.23;3.63;;;7.30;62.30;;;7.20;53.22;98079.16;4965641;29;20047;-53
2022/04/10 10:20:08;;;;;;;6.37;4.37;;;7.30;61.60;;;7.41;53.61;98084.44;4967043;29;20051;-54
2022/04/10 10:22:36;;;;;;;7.77;3.87;;;7.50;61.70;;;7.33;53.65;98079.78;4965397;29;20066;-51
2022/04/10 10:25:07;;;;;;;7.00;4.27;;;7.50;61.70;;;7.46;53.04;98088.38;4966910;29;20341;-49
2022/04/10 10:27:56;;;;;;;7.37;4.07;;;7.60;61.50;;;7.32;51.99;98094.00;4966297;29;20241;-51
2022/04/10 10:31:03;;;;;;;8.20;4.93;;;7.40;60.00;;;6.96;51.14;98087.31;4966836;29;20245;-52
2022/04/10 10:33:31;;;;;;;6.27;4.60;;;7.20;58.20;;;7.08;52.02;98076.56;4966958;29;20115;-49
2022/04/10 10:36:00;;;;;;;9.57;4.57;;;7.00;60.50;;;6.95;53.01;98086.47;4965116;29;20062;-51
2022/04/10 10:38:31;;;;;;;5.70;4.07;;;7.00;60.90;;;6.79;55.04;98092.22;4966759;29;20254;-48
2022/04/10 10:41:29;;;;;;;5.53;3.63;;;6.80;65.40;;;6.92;55.47;98089.41;4965518;29;20245;-51
2022/04/10 10:43:58;;;;;;;6.40;4.20;;;6.90;67.40;;;6.94;54.60;98076.88;4966169;28;20057;-51
2022/04/10 10:46:32;;;;;;;6.77;4.33;;;6.80;66.40;;;7.00;54.16;98081.66;4963437;29;20057;-49
2022/04/10 10:49:20;;;;;;;4.77;3.40;;;6.80;65.50;;;7.04;55.39;98082.25;4965543;29;20047;-49
2022/04/10 10:51:51;;;;;;;5.07;3.70;;;6.80;68.00;;;7.06;55.37;98078.50;4966407;29;20053;-48